CheckWX is a tool to help pilots better visualize weather data.  It is not intended as a substitute for an official pre-flight weather briefing.

01:41:11 UTC

KARA TAF
Acadiana Regional Airport
New Iberia, Louisiana, USA
KARA 052333Z 0600/0624 16006KT P6SM SKC FM060800 15004KT P6SM BKN025 BKN100 FM061400 22007KT P6SM VCSH BKN015 OVC025 FM062000 26010KT P6SM OVC025 FM062300 31009KT P6SM BKN025 BKN200

Dec-6@
00:00 UTC

Dec-6 @ 00:00 UTC

Dec-6@
08:00 UTC

Dec-6 @ 08:00 UTC

KARA 052333Z 0600/0624 16006KT P6SM SKC
Wind
  • 160° at 6 KTS
Cloud Levels
  • Clear skies

Dec-6@
08:00 UTC

Dec-6 @ 08:00 UTC

Dec-6@
14:00 UTC

Dec-6 @ 14:00 UTC

FM060800 15004KT P6SM BKN025 BKN100

From

From Standard forecast or significant change

Wind
  • 150° at 4 KTS
Cloud Levels
  • Broken at 2,500' AGL
  • Broken at 10,000' AGL

Dec-6@
14:00 UTC

Dec-6 @ 14:00 UTC

Dec-6@
20:00 UTC

Dec-6 @ 20:00 UTC

FM061400 22007KT P6SM VCSH BKN015 OVC025

From

From Standard forecast or significant change

Wind
  • 220° at 7 KTS
Cloud Levels
  • Broken at 1,500' AGL
  • Overcast at 2,500' AGL

Dec-6@
20:00 UTC

Dec-6 @ 20:00 UTC

Dec-6@
23:00 UTC

Dec-6 @ 23:00 UTC

FM062000 26010KT P6SM OVC025

From

From Standard forecast or significant change

Wind
  • 260° at 10 KTS
Cloud Levels
  • Overcast at 2,500' AGL

Dec-6@
23:00 UTC

Dec-6 @ 23:00 UTC

Dec-7@
00:00 UTC

Dec-7 @ 00:00 UTC

FM062300 31009KT P6SM BKN025 BKN200

From

From Standard forecast or significant change

Wind
  • 310° at 9 KTS
Cloud Levels
  • Broken at 2,500' AGL
  • Broken at 20,000' AGL